Airfield :







YOU CAN JOIN US ON...

 
LOGIN :

Register | Disclaimer

   EN    FR    IT 

 









Legend :    VFR   Marginal VFR   IFR   Intensive IFR   Very Intensive IFR
Visi :
Ceiling :
>= 8 km
>= 3000ft
5 to 8 km
1000 to 3000 ft
1500m to 5 km
500 to 1000 ft
800 to 1500m
200 to 500 ft
< 800m
< 200 ft
Symbols :   Thunderstorms  Fog  Heavy snow  Heavy precipitations  Wind > 20 kt







- Airport Elevation : 1166 ft


KMPV - Edward F Knapp State

CURRENT METAR :
  • 192251Z AUTO 15009KT 10SM BKN100 OVC110 19/18 A2988 RMK AO2 LTG DSNT E AND S RAE39 TSB2152E07B10E25 SLP118 P0064 T01940178

EXPIRED METARs :
  • 192233Z AUTO 15006KT 8SM -RA FEW030 BKN090 OVC110 19/18 A2988 RMK AO2 LTG DSNT NE-S TSB2152E07B10E25 P0064 T01940178
  • 192217Z AUTO 23004KT 1 1/2SM TSRA BR BKN026 BKN037 OVC048 19/18 A2991 RMK AO2 LTG DSNT S AND SW TSB2152E07B10 P0061 T01890178
  • 192211Z AUTO 30007G16KT 1 1/4SM +TSRA BR SCT023 BKN031 OVC050 19/18 A2991 RMK AO2 LTG DSNT SW AND NW TSB2152E07B10 P0056 T01890178
  • 192157Z AUTO 24008G17KT 210V270 3/4SM +TSRA SCT019 BKN050 OVC080 20/17 A2992 RMK AO2 LTG DSNT SW-N TSB52 PRESRR P0028 T02000172
  • 192155Z AUTO 26011G17KT 1 1/4SM +TSRA FEW021 BKN050 OVC080 21/17 A2992 RMK AO2 LTG DSNT SW-N TSB52 PRESRR P0018 T02110172
  • 192051Z AUTO 17011KT 10SM SCT070 SCT085 25/16 A2986 RMK AO2 SLP110 T02500156 56023

TAF KMPV
Valid from the 19 at 21:00 until the 20 at 18:00 UTC


192103Z 1921/2018 17011KT P6SM SCT060
FM192200 19008KT P6SM -SHRA VCTS FEW060CB BKN100
FM192300 19008KT P6SM SCT100
FM200300 18009KT 5SM -SHRA BR BKN025
FM200900 20009KT P6SM VCSH BKN025
FM201600 22010KT 6SM -SHRA BKN040
KZBW FIR / North America



MET'MAP, your aeronautical weather chart ! - Copyright ORBIFLY December 2007 - Disclaimer

ORBIFLY MET'MAP TEAM :

Programming & Development : Alexandra Zaïnal
Concept & Development : Baudouin d'Aumeries
Co-Development & Prog : Marc-Olivier Méhu
Technical & hardware support : Manuel Goepfert

Contact : metmap@orbifly.com




SOURCES & CREDITS :

   NOAA